sensor_id;sensor_type;location;lat;lon;timestamp;P1;durP1;ratioP1;P2;durP2;ratioP2
16579;SDS011;8402;51.466;6.806;2023-05-27T00:01:34;9.73;;;3.50;;
16579;SDS011;8402;51.466;6.806;2023-05-27T00:04:05;14.00;;;3.53;;
16579;SDS011;8402;51.466;6.806;2023-05-27T00:06:35;12.53;;;4.03;;
16579;SDS011;8402;51.466;6.806;2023-05-27T00:09:05;20.70;;;4.03;;
16579;SDS011;8402;51.466;6.806;2023-05-27T00:11:36;18.07;;;4.03;;
16579;SDS011;8402;51.466;6.806;2023-05-27T00:14:08;12.30;;;4.07;;
16579;SDS011;8402;51.466;6.806;2023-05-27T00:16:40;16.30;;;3.93;;
16579;SDS011;8402;51.466;6.806;2023-05-27T00:19:10;14.97;;;3.40;;
16579;SDS011;8402;51.466;6.806;2023-05-27T00:21:40;12.60;;;3.87;;
16579;SDS011;8402;51.466;6.806;2023-05-27T00:24:10;17.63;;;3.50;;
16579;SDS011;8402;51.466;6.806;2023-05-27T00:26:40;14.67;;;4.20;;
16579;SDS011;8402;51.466;6.806;2023-05-27T00:29:13;18.50;;;4.60;;
16579;SDS011;8402;51.466;6.806;2023-05-27T00:31:45;13.77;;;4.17;;
16579;SDS011;8402;51.466;6.806;2023-05-27T00:34:15;12.93;;;3.73;;
16579;SDS011;8402;51.466;6.806;2023-05-27T00:36:45;13.07;;;3.43;;
16579;SDS011;8402;51.466;6.806;2023-05-27T00:39:15;12.33;;;3.43;;
16579;SDS011;8402;51.466;6.806;2023-05-27T00:41:47;12.77;;;4.00;;
16579;SDS011;8402;51.466;6.806;2023-05-27T00:44:20;12.30;;;4.13;;
16579;SDS011;8402;51.466;6.806;2023-05-27T00:46:50;18.37;;;3.70;;
16579;SDS011;8402;51.466;6.806;2023-05-27T00:49:20;10.73;;;3.60;;
16579;SDS011;8402;51.466;6.806;2023-05-27T00:51:52;14.70;;;3.40;;
16579;SDS011;8402;51.466;6.806;2023-05-27T00:54:22;12.23;;;3.63;;
16579;SDS011;8402;51.466;6.806;2023-05-27T00:56:52;14.87;;;3.67;;
16579;SDS011;8402;51.466;6.806;2023-05-27T00:59:25;16.50;;;3.67;;
16579;SDS011;8402;51.466;6.806;2023-05-27T01:01:55;16.13;;;3.33;;
16579;SDS011;8402;51.466;6.806;2023-05-27T01:04:25;15.13;;;3.77;;
16579;SDS011;8402;51.466;6.806;2023-05-27T01:06:58;12.97;;;3.33;;
16579;SDS011;8402;51.466;6.806;2023-05-27T01:09:38;13.97;;;4.20;;
16579;SDS011;8402;51.466;6.806;2023-05-27T01:12:18;11.47;;;3.67;;
16579;SDS011;8402;51.466;6.806;2023-05-27T01:15:00;17.67;;;3.33;;
16579;SDS011;8402;51.466;6.806;2023-05-27T01:17:34;21.23;;;4.40;;
16579;SDS011;8402;51.466;6.806;2023-05-27T01:20:09;13.17;;;3.57;;
16579;SDS011;8402;51.466;6.806;2023-05-27T01:22:44;15.70;;;3.70;;
16579;SDS011;8402;51.466;6.806;2023-05-27T01:25:19;17.07;;;3.83;;
16579;SDS011;8402;51.466;6.806;2023-05-27T01:27:49;17.10;;;3.80;;
16579;SDS011;8402;51.466;6.806;2023-05-27T01:30:19;18.90;;;3.63;;
16579;SDS011;8402;51.466;6.806;2023-05-27T01:32:50;12.57;;;3.70;;
16579;SDS011;8402;51.466;6.806;2023-05-27T01:35:26;15.50;;;3.93;;
16579;SDS011;8402;51.466;6.806;2023-05-27T01:38:04;18.83;;;3.77;;
16579;SDS011;8402;51.466;6.806;2023-05-27T01:40:36;13.77;;;3.83;;
16579;SDS011;8402;51.466;6.806;2023-05-27T01:43:08;13.67;;;4.10;;
16579;SDS011;8402;51.466;6.806;2023-05-27T01:45:39;10.70;;;3.50;;
16579;SDS011;8402;51.466;6.806;2023-05-27T01:48:10;13.10;;;3.77;;
16579;SDS011;8402;51.466;6.806;2023-05-27T01:50:40;10.77;;;4.10;;
16579;SDS011;8402;51.466;6.806;2023-05-27T01:53:12;23.77;;;4.43;;
16579;SDS011;8402;51.466;6.806;2023-05-27T01:55:42;12.23;;;3.60;;
16579;SDS011;8402;51.466;6.806;2023-05-27T01:58:12;16.70;;;4.70;;
16579;SDS011;8402;51.466;6.806;2023-05-27T02:00:44;11.27;;;3.57;;
16579;SDS011;8402;51.466;6.806;2023-05-27T02:03:14;11.90;;;3.83;;
16579;SDS011;8402;51.466;6.806;2023-05-27T02:05:44;17.23;;;3.97;;
16579;SDS011;8402;51.466;6.806;2023-05-27T02:08:17;14.53;;;4.00;;
16579;SDS011;8402;51.466;6.806;2023-05-27T02:10:47;14.53;;;4.37;;
16579;SDS011;8402;51.466;6.806;2023-05-27T02:13:17;16.80;;;4.17;;
16579;SDS011;8402;51.466;6.806;2023-05-27T02:15:47;12.20;;;4.07;;
16579;SDS011;8402;51.466;6.806;2023-05-27T02:18:17;12.90;;;4.27;;
16579;SDS011;8402;51.466;6.806;2023-05-27T02:20:48;15.73;;;3.60;;
16579;SDS011;8402;51.466;6.806;2023-05-27T02:23:20;12.00;;;4.20;;
16579;SDS011;8402;51.466;6.806;2023-05-27T02:25:50;13.47;;;4.00;;
16579;SDS011;8402;51.466;6.806;2023-05-27T02:28:22;18.23;;;4.63;;
16579;SDS011;8402;51.466;6.806;2023-05-27T02:30:52;11.70;;;3.83;;
16579;SDS011;8402;51.466;6.806;2023-05-27T02:33:22;16.03;;;3.97;;
16579;SDS011;8402;51.466;6.806;2023-05-27T02:35:52;15.10;;;3.67;;
16579;SDS011;8402;51.466;6.806;2023-05-27T02:38:25;9.73;;;3.60;;
16579;SDS011;8402;51.466;6.806;2023-05-27T02:40:56;14.37;;;3.80;;
16579;SDS011;8402;51.466;6.806;2023-05-27T02:43:27;14.77;;;3.67;;
16579;SDS011;8402;51.466;6.806;2023-05-27T02:45:57;13.20;;;4.10;;
16579;SDS011;8402;51.466;6.806;2023-05-27T02:48:27;13.23;;;3.97;;
16579;SDS011;8402;51.466;6.806;2023-05-27T02:50:57;15.37;;;4.37;;
16579;SDS011;8402;51.466;6.806;2023-05-27T02:53:30;14.97;;;4.20;;
16579;SDS011;8402;51.466;6.806;2023-05-27T02:56:00;15.20;;;4.33;;
16579;SDS011;8402;51.466;6.806;2023-05-27T02:58:30;9.53;;;3.83;;
16579;SDS011;8402;51.466;6.806;2023-05-27T03:01:01;15.37;;;4.37;;
16579;SDS011;8402;51.466;6.806;2023-05-27T03:03:33;14.03;;;4.37;;
16579;SDS011;8402;51.466;6.806;2023-05-27T03:06:03;11.23;;;3.90;;
16579;SDS011;8402;51.466;6.806;2023-05-27T03:08:36;9.73;;;3.47;;
16579;SDS011;8402;51.466;6.806;2023-05-27T03:11:06;16.67;;;3.90;;
16579;SDS011;8402;51.466;6.806;2023-05-27T03:13:36;18.60;;;4.13;;
16579;SDS011;8402;51.466;6.806;2023-05-27T03:16:06;15.97;;;4.00;;
16579;SDS011;8402;51.466;6.806;2023-05-27T03:18:37;15.83;;;4.07;;
16579;SDS011;8402;51.466;6.806;2023-05-27T03:21:07;13.13;;;4.23;;
16579;SDS011;8402;51.466;6.806;2023-05-27T03:23:40;12.50;;;4.40;;
16579;SDS011;8402;51.466;6.806;2023-05-27T03:26:10;15.53;;;4.40;;
16579;SDS011;8402;51.466;6.806;2023-05-27T03:28:40;11.87;;;4.30;;
16579;SDS011;8402;51.466;6.806;2023-05-27T03:31:10;11.73;;;4.20;;
16579;SDS011;8402;51.466;6.806;2023-05-27T03:33:40;15.23;;;4.23;;
16579;SDS011;8402;51.466;6.806;2023-05-27T03:36:10;13.30;;;4.20;;
16579;SDS011;8402;51.466;6.806;2023-05-27T03:38:43;19.90;;;4.20;;
16579;SDS011;8402;51.466;6.806;2023-05-27T03:41:13;17.43;;;4.20;;
16579;SDS011;8402;51.466;6.806;2023-05-27T03:43:43;11.33;;;4.33;;
16579;SDS011;8402;51.466;6.806;2023-05-27T03:46:13;17.07;;;4.37;;
16579;SDS011;8402;51.466;6.806;2023-05-27T03:48:43;16.73;;;4.60;;
16579;SDS011;8402;51.466;6.806;2023-05-27T03:51:13;14.03;;;4.23;;
16579;SDS011;8402;51.466;6.806;2023-05-27T03:53:45;14.17;;;4.67;;
16579;SDS011;8402;51.466;6.806;2023-05-27T03:56:15;15.87;;;4.00;;
16579;SDS011;8402;51.466;6.806;2023-05-27T03:58:45;13.70;;;4.13;;
16579;SDS011;8402;51.466;6.806;2023-05-27T04:01:15;14.40;;;4.40;;
16579;SDS011;8402;51.466;6.806;2023-05-27T04:03:47;11.97;;;4.17;;
16579;SDS011;8402;51.466;6.806;2023-05-27T04:06:17;15.53;;;4.10;;
16579;SDS011;8402;51.466;6.806;2023-05-27T04:08:50;12.77;;;3.93;;
16579;SDS011;8402;51.466;6.806;2023-05-27T04:11:20;13.43;;;4.30;;
16579;SDS011;8402;51.466;6.806;2023-05-27T04:13:50;13.17;;;4.10;;
16579;SDS011;8402;51.466;6.806;2023-05-27T04:16:20;10.30;;;3.90;;
16579;SDS011;8402;51.466;6.806;2023-05-27T04:18:51;11.87;;;4.50;;
16579;SDS011;8402;51.466;6.806;2023-05-27T04:21:21;16.57;;;4.17;;
16579;SDS011;8402;51.466;6.806;2023-05-27T04:23:54;12.97;;;4.30;;
16579;SDS011;8402;51.466;6.806;2023-05-27T04:26:24;15.63;;;4.27;;
16579;SDS011;8402;51.466;6.806;2023-05-27T04:28:54;13.67;;;4.43;;
16579;SDS011;8402;51.466;6.806;2023-05-27T04:31:26;13.17;;;4.07;;
16579;SDS011;8402;51.466;6.806;2023-05-27T04:33:56;15.83;;;4.53;;
16579;SDS011;8402;51.466;6.806;2023-05-27T04:36:27;13.57;;;4.87;;
16579;SDS011;8402;51.466;6.806;2023-05-27T04:39:02;11.00;;;4.23;;
16579;SDS011;8402;51.466;6.806;2023-05-27T04:41:34;18.20;;;5.00;;
16579;SDS011;8402;51.466;6.806;2023-05-27T04:44:06;13.33;;;3.97;;
16579;SDS011;8402;51.466;6.806;2023-05-27T04:46:37;12.03;;;4.03;;
16579;SDS011;8402;51.466;6.806;2023-05-27T04:49:10;14.30;;;4.03;;
16579;SDS011;8402;51.466;6.806;2023-05-27T04:51:40;14.30;;;4.70;;
16579;SDS011;8402;51.466;6.806;2023-05-27T04:54:14;13.80;;;4.77;;
16579;SDS011;8402;51.466;6.806;2023-05-27T04:56:44;16.57;;;4.60;;
16579;SDS011;8402;51.466;6.806;2023-05-27T04:59:14;17.07;;;5.07;;
16579;SDS011;8402;51.466;6.806;2023-05-27T05:01:48;22.57;;;4.97;;
16579;SDS011;8402;51.466;6.806;2023-05-27T05:04:39;12.53;;;4.43;;
16579;SDS011;8402;51.466;6.806;2023-05-27T05:07:09;15.07;;;4.70;;
16579;SDS011;8402;51.466;6.806;2023-05-27T05:09:42;12.90;;;4.17;;
16579;SDS011;8402;51.466;6.806;2023-05-27T05:12:12;17.40;;;4.70;;
16579;SDS011;8402;51.466;6.806;2023-05-27T05:14:42;19.23;;;5.33;;
16579;SDS011;8402;51.466;6.806;2023-05-27T05:17:14;15.27;;;4.50;;
16579;SDS011;8402;51.466;6.806;2023-05-27T05:19:45;19.70;;;4.87;;
16579;SDS011;8402;51.466;6.806;2023-05-27T05:22:15;20.23;;;5.47;;
16579;SDS011;8402;51.466;6.806;2023-05-27T05:24:49;11.50;;;4.53;;
16579;SDS011;8402;51.466;6.806;2023-05-27T05:27:19;18.57;;;4.67;;
16579;SDS011;8402;51.466;6.806;2023-05-27T05:29:49;14.57;;;4.80;;
16579;SDS011;8402;51.466;6.806;2023-05-27T05:32:19;15.57;;;4.80;;
16579;SDS011;8402;51.466;6.806;2023-05-27T05:34:49;15.43;;;4.47;;
16579;SDS011;8402;51.466;6.806;2023-05-27T05:37:19;13.10;;;5.10;;
16579;SDS011;8402;51.466;6.806;2023-05-27T05:39:53;17.40;;;5.07;;
16579;SDS011;8402;51.466;6.806;2023-05-27T05:42:23;13.33;;;4.87;;
16579;SDS011;8402;51.466;6.806;2023-05-27T05:44:53;15.20;;;4.77;;
16579;SDS011;8402;51.466;6.806;2023-05-27T05:47:23;14.80;;;5.63;;
16579;SDS011;8402;51.466;6.806;2023-05-27T05:49:53;18.13;;;5.20;;
16579;SDS011;8402;51.466;6.806;2023-05-27T05:52:23;20.30;;;5.00;;
16579;SDS011;8402;51.466;6.806;2023-05-27T05:54:55;15.33;;;5.03;;
16579;SDS011;8402;51.466;6.806;2023-05-27T05:57:26;23.27;;;4.67;;
16579;SDS011;8402;51.466;6.806;2023-05-27T06:00:01;13.87;;;5.10;;
16579;SDS011;8402;51.466;6.806;2023-05-27T06:02:39;21.00;;;5.87;;
16579;SDS011;8402;51.466;6.806;2023-05-27T06:05:10;18.10;;;5.50;;
16579;SDS011;8402;51.466;6.806;2023-05-27T06:07:41;18.20;;;5.70;;
16579;SDS011;8402;51.466;6.806;2023-05-27T06:10:15;15.37;;;5.20;;
16579;SDS011;8402;51.466;6.806;2023-05-27T06:12:45;21.43;;;5.70;;
16579;SDS011;8402;51.466;6.806;2023-05-27T06:15:17;20.03;;;5.40;;
16579;SDS011;8402;51.466;6.806;2023-05-27T06:17:47;22.77;;;5.50;;
16579;SDS011;8402;51.466;6.806;2023-05-27T06:20:17;21.47;;;5.47;;
16579;SDS011;8402;51.466;6.806;2023-05-27T06:22:49;15.47;;;5.23;;
16579;SDS011;8402;51.466;6.806;2023-05-27T06:25:22;21.00;;;5.60;;
16579;SDS011;8402;51.466;6.806;2023-05-27T06:27:52;15.83;;;5.53;;
16579;SDS011;8402;51.466;6.806;2023-05-27T06:30:24;17.60;;;5.20;;
16579;SDS011;8402;51.466;6.806;2023-05-27T06:32:55;16.20;;;5.03;;
16579;SDS011;8402;51.466;6.806;2023-05-27T06:35:29;17.80;;;5.43;;
16579;SDS011;8402;51.466;6.806;2023-05-27T06:38:00;21.43;;;5.27;;
16579;SDS011;8402;51.466;6.806;2023-05-27T06:40:34;23.10;;;5.07;;
16579;SDS011;8402;51.466;6.806;2023-05-27T06:43:15;16.87;;;5.50;;
16579;SDS011;8402;51.466;6.806;2023-05-27T06:45:45;16.20;;;5.50;;
16579;SDS011;8402;51.466;6.806;2023-05-27T06:48:28;16.07;;;4.50;;
16579;SDS011;8402;51.466;6.806;2023-05-27T06:50:58;16.97;;;5.03;;
16579;SDS011;8402;51.466;6.806;2023-05-27T06:53:28;14.80;;;4.80;;
16579;SDS011;8402;51.466;6.806;2023-05-27T06:56:05;16.60;;;5.43;;
16579;SDS011;8402;51.466;6.806;2023-05-27T06:58:40;12.83;;;5.10;;
16579;SDS011;8402;51.466;6.806;2023-05-27T07:01:10;19.67;;;5.83;;
16579;SDS011;8402;51.466;6.806;2023-05-27T07:03:40;13.83;;;5.47;;
16579;SDS011;8402;51.466;6.806;2023-05-27T07:06:11;19.67;;;5.63;;
16579;SDS011;8402;51.466;6.806;2023-05-27T07:08:44;15.97;;;6.23;;
16579;SDS011;8402;51.466;6.806;2023-05-27T07:11:17;13.40;;;5.33;;
16579;SDS011;8402;51.466;6.806;2023-05-27T07:13:48;12.30;;;5.40;;
16579;SDS011;8402;51.466;6.806;2023-05-27T07:16:18;15.87;;;5.47;;
16579;SDS011;8402;51.466;6.806;2023-05-27T07:18:48;18.40;;;5.47;;
16579;SDS011;8402;51.466;6.806;2023-05-27T07:21:19;20.57;;;5.93;;
16579;SDS011;8402;51.466;6.806;2023-05-27T07:23:50;17.90;;;6.00;;
16579;SDS011;8402;51.466;6.806;2023-05-27T07:26:22;18.47;;;5.67;;
16579;SDS011;8402;51.466;6.806;2023-05-27T07:28:53;14.67;;;5.93;;
16579;SDS011;8402;51.466;6.806;2023-05-27T07:31:23;12.73;;;5.37;;
16579;SDS011;8402;51.466;6.806;2023-05-27T07:33:53;12.97;;;5.60;;
16579;SDS011;8402;51.466;6.806;2023-05-27T07:36:23;14.27;;;5.30;;
16579;SDS011;8402;51.466;6.806;2023-05-27T07:41:24;13.13;;;5.43;;
16579;SDS011;8402;51.466;6.806;2023-05-27T07:43:56;18.00;;;5.57;;
16579;SDS011;8402;51.466;6.806;2023-05-27T07:46:26;13.90;;;5.68;;
16579;SDS011;8402;51.466;6.806;2023-05-27T07:48:56;18.27;;;6.22;;
16579;SDS011;8402;51.466;6.806;2023-05-27T07:51:27;14.93;;;5.40;;
16579;SDS011;8402;51.466;6.806;2023-05-27T07:53:57;16.40;;;6.25;;
16579;SDS011;8402;51.466;6.806;2023-05-27T07:56:30;18.48;;;5.82;;
16579;SDS011;8402;51.466;6.806;2023-05-27T07:59:00;17.13;;;5.15;;
16579;SDS011;8402;51.466;6.806;2023-05-27T08:01:31;18.83;;;5.88;;
16579;SDS011;8402;51.466;6.806;2023-05-27T08:04:03;12.23;;;5.38;;
16579;SDS011;8402;51.466;6.806;2023-05-27T08:06:49;13.85;;;4.97;;
16579;SDS011;8402;51.466;6.806;2023-05-27T08:09:19;13.38;;;5.40;;
16579;SDS011;8402;51.466;6.806;2023-05-27T08:11:52;13.30;;;4.97;;
16579;SDS011;8402;51.466;6.806;2023-05-27T08:14:22;15.00;;;5.35;;
16579;SDS011;8402;51.466;6.806;2023-05-27T08:16:54;16.00;;;5.78;;
16579;SDS011;8402;51.466;6.806;2023-05-27T08:19:24;18.52;;;5.93;;
16579;SDS011;8402;51.466;6.806;2023-05-27T08:21:54;16.60;;;5.43;;
16579;SDS011;8402;51.466;6.806;2023-05-27T08:24:31;20.27;;;5.90;;
16579;SDS011;8402;51.466;6.806;2023-05-27T08:27:03;16.67;;;5.97;;
16579;SDS011;8402;51.466;6.806;2023-05-27T08:29:34;11.90;;;5.45;;
16579;SDS011;8402;51.466;6.806;2023-05-27T08:32:04;18.63;;;5.88;;
16579;SDS011;8402;51.466;6.806;2023-05-27T08:34:34;17.05;;;6.50;;
16579;SDS011;8402;51.466;6.806;2023-05-27T08:37:05;14.90;;;5.82;;
16579;SDS011;8402;51.466;6.806;2023-05-27T08:39:35;15.27;;;5.75;;
16579;SDS011;8402;51.466;6.806;2023-05-27T08:42:08;14.65;;;5.50;;
16579;SDS011;8402;51.466;6.806;2023-05-27T08:44:38;17.08;;;5.85;;
16579;SDS011;8402;51.466;6.806;2023-05-27T08:47:08;20.95;;;5.93;;
16579;SDS011;8402;51.466;6.806;2023-05-27T08:49:38;13.38;;;5.97;;
16579;SDS011;8402;51.466;6.806;2023-05-27T08:52:09;13.90;;;5.45;;
16579;SDS011;8402;51.466;6.806;2023-05-27T08:54:40;18.02;;;6.88;;
16579;SDS011;8402;51.466;6.806;2023-05-27T08:57:15;12.95;;;5.70;;
16579;SDS011;8402;51.466;6.806;2023-05-27T08:59:48;21.95;;;5.32;;
16579;SDS011;8402;51.466;6.806;2023-05-27T09:02:20;15.07;;;5.40;;
16579;SDS011;8402;51.466;6.806;2023-05-27T09:04:51;18.95;;;5.32;;
16579;SDS011;8402;51.466;6.806;2023-05-27T09:07:21;20.70;;;5.57;;
16579;SDS011;8402;51.466;6.806;2023-05-27T09:09:55;14.52;;;5.70;;
16579;SDS011;8402;51.466;6.806;2023-05-27T09:12:28;18.83;;;5.35;;
16579;SDS011;8402;51.466;6.806;2023-05-27T09:14:58;16.23;;;5.45;;
16579;SDS011;8402;51.466;6.806;2023-05-27T09:17:28;10.70;;;4.85;;
16579;SDS011;8402;51.466;6.806;2023-05-27T09:19:58;11.40;;;4.82;;
16579;SDS011;8402;51.466;6.806;2023-05-27T09:22:29;13.93;;;4.90;;
16579;SDS011;8402;51.466;6.806;2023-05-27T09:25:00;18.05;;;5.63;;
16579;SDS011;8402;51.466;6.806;2023-05-27T09:27:33;16.13;;;6.38;;
16579;SDS011;8402;51.466;6.806;2023-05-27T09:30:07;14.82;;;5.45;;
16579;SDS011;8402;51.466;6.806;2023-05-27T09:32:38;20.65;;;6.22;;
16579;SDS011;8402;51.466;6.806;2023-05-27T09:35:10;18.25;;;6.00;;
16579;SDS011;8402;51.466;6.806;2023-05-27T09:37:41;12.77;;;4.93;;
16579;SDS011;8402;51.466;6.806;2023-05-27T09:40:13;14.40;;;4.80;;
16579;SDS011;8402;51.466;6.806;2023-05-27T09:42:47;14.05;;;4.47;;
16579;SDS011;8402;51.466;6.806;2023-05-27T09:45:18;11.95;;;4.32;;
16579;SDS011;8402;51.466;6.806;2023-05-27T09:47:50;19.45;;;5.43;;
16579;SDS011;8402;51.466;6.806;2023-05-27T09:50:22;10.88;;;4.85;;
16579;SDS011;8402;51.466;6.806;2023-05-27T09:52:52;11.85;;;4.72;;
16579;SDS011;8402;51.466;6.806;2023-05-27T09:55:36;13.85;;;4.70;;
16579;SDS011;8402;51.466;6.806;2023-05-27T09:58:10;14.07;;;4.47;;
16579;SDS011;8402;51.466;6.806;2023-05-27T10:00:43;13.90;;;4.35;;
16579;SDS011;8402;51.466;6.806;2023-05-27T10:03:14;15.07;;;4.50;;
16579;SDS011;8402;51.466;6.806;2023-05-27T10:05:46;13.80;;;4.38;;
16579;SDS011;8402;51.466;6.806;2023-05-27T10:08:18;13.00;;;3.92;;
16579;SDS011;8402;51.466;6.806;2023-05-27T10:10:52;13.20;;;4.93;;
16579;SDS011;8402;51.466;6.806;2023-05-27T10:13:26;12.65;;;4.30;;
16579;SDS011;8402;51.466;6.806;2023-05-27T10:15:57;14.45;;;4.70;;
16579;SDS011;8402;51.466;6.806;2023-05-27T10:18:27;9.98;;;4.20;;
16579;SDS011;8402;51.466;6.806;2023-05-27T10:21:03;14.50;;;4.88;;
16579;SDS011;8402;51.466;6.806;2023-05-27T10:23:33;16.25;;;4.95;;
16579;SDS011;8402;51.466;6.806;2023-05-27T10:26:04;15.23;;;4.93;;
16579;SDS011;8402;51.466;6.806;2023-05-27T10:28:38;13.50;;;4.63;;
16579;SDS011;8402;51.466;6.806;2023-05-27T10:31:13;11.60;;;4.18;;
16579;SDS011;8402;51.466;6.806;2023-05-27T10:33:46;15.32;;;4.47;;
16579;SDS011;8402;51.466;6.806;2023-05-27T10:36:22;12.32;;;4.28;;
16579;SDS011;8402;51.466;6.806;2023-05-27T10:38:55;11.88;;;4.50;;
16579;SDS011;8402;51.466;6.806;2023-05-27T10:41:27;18.95;;;4.43;;
16579;SDS011;8402;51.466;6.806;2023-05-27T10:43:59;15.80;;;4.57;;
16579;SDS011;8402;51.466;6.806;2023-05-27T10:46:37;10.30;;;4.18;;
16579;SDS011;8402;51.466;6.806;2023-05-27T10:49:09;12.50;;;4.25;;
16579;SDS011;8402;51.466;6.806;2023-05-27T10:51:41;11.80;;;4.50;;
16579;SDS011;8402;51.466;6.806;2023-05-27T10:54:12;11.73;;;4.22;;
16579;SDS011;8402;51.466;6.806;2023-05-27T10:56:55;11.40;;;4.25;;
16579;SDS011;8402;51.466;6.806;2023-05-27T10:59:29;12.25;;;4.35;;
16579;SDS011;8402;51.466;6.806;2023-05-27T11:02:08;12.05;;;4.45;;
16579;SDS011;8402;51.466;6.806;2023-05-27T11:04:39;11.13;;;4.20;;
16579;SDS011;8402;51.466;6.806;2023-05-27T11:07:09;13.40;;;4.38;;
16579;SDS011;8402;51.466;6.806;2023-05-27T11:09:42;12.25;;;3.80;;
16579;SDS011;8402;51.466;6.806;2023-05-27T11:12:13;14.10;;;4.57;;
16579;SDS011;8402;51.466;6.806;2023-05-27T11:14:48;12.82;;;4.07;;
16579;SDS011;8402;51.466;6.806;2023-05-27T11:17:20;12.73;;;4.03;;
16579;SDS011;8402;51.466;6.806;2023-05-27T11:19:50;14.77;;;4.32;;
16579;SDS011;8402;51.466;6.806;2023-05-27T11:22:21;10.65;;;4.25;;
16579;SDS011;8402;51.466;6.806;2023-05-27T11:24:57;10.48;;;4.03;;
16579;SDS011;8402;51.466;6.806;2023-05-27T11:27:34;11.48;;;3.92;;
16579;SDS011;8402;51.466;6.806;2023-05-27T11:30:09;8.80;;;3.53;;
16579;SDS011;8402;51.466;6.806;2023-05-27T11:32:40;10.55;;;4.20;;
16579;SDS011;8402;51.466;6.806;2023-05-27T11:35:14;13.27;;;3.88;;
16579;SDS011;8402;51.466;6.806;2023-05-27T11:37:45;7.88;;;3.63;;
16579;SDS011;8402;51.466;6.806;2023-05-27T11:40:16;10.18;;;3.85;;
16579;SDS011;8402;51.466;6.806;2023-05-27T11:42:49;9.43;;;3.17;;
16579;SDS011;8402;51.466;6.806;2023-05-27T11:45:22;10.18;;;3.63;;
16579;SDS011;8402;51.466;6.806;2023-05-27T11:47:53;13.30;;;3.45;;
16579;SDS011;8402;51.466;6.806;2023-05-27T11:50:25;9.13;;;3.83;;
16579;SDS011;8402;51.466;6.806;2023-05-27T11:52:57;9.15;;;3.72;;
16579;SDS011;8402;51.466;6.806;2023-05-27T11:55:31;8.23;;;3.15;;
16579;SDS011;8402;51.466;6.806;2023-05-27T11:58:01;12.00;;;3.90;;
16579;SDS011;8402;51.466;6.806;2023-05-27T12:00:34;9.57;;;4.10;;
16579;SDS011;8402;51.466;6.806;2023-05-27T12:03:04;10.35;;;3.83;;
16579;SDS011;8402;51.466;6.806;2023-05-27T12:05:34;9.88;;;4.28;;
16579;SDS011;8402;51.466;6.806;2023-05-27T12:08:06;10.32;;;4.07;;
16579;SDS011;8402;51.466;6.806;2023-05-27T12:10:36;9.20;;;4.10;;
16579;SDS011;8402;51.466;6.806;2023-05-27T12:13:06;10.90;;;3.90;;
16579;SDS011;8402;51.466;6.806;2023-05-27T12:15:39;10.25;;;4.63;;
16579;SDS011;8402;51.466;6.806;2023-05-27T12:18:09;10.98;;;4.13;;
16579;SDS011;8402;51.466;6.806;2023-05-27T12:20:39;9.98;;;3.90;;
16579;SDS011;8402;51.466;6.806;2023-05-27T12:23:09;12.02;;;4.20;;
16579;SDS011;8402;51.466;6.806;2023-05-27T12:25:39;10.38;;;3.60;;
16579;SDS011;8402;51.466;6.806;2023-05-27T12:28:09;10.70;;;4.03;;
16579;SDS011;8402;51.466;6.806;2023-05-27T12:30:45;12.27;;;3.95;;
16579;SDS011;8402;51.466;6.806;2023-05-27T12:33:15;8.02;;;3.50;;
16579;SDS011;8402;51.466;6.806;2023-05-27T12:35:46;13.25;;;4.15;;
16579;SDS011;8402;51.466;6.806;2023-05-27T12:38:16;13.35;;;3.78;;
16579;SDS011;8402;51.466;6.806;2023-05-27T12:40:46;9.48;;;3.55;;
16579;SDS011;8402;51.466;6.806;2023-05-27T12:43:17;12.55;;;3.85;;
16579;SDS011;8402;51.466;6.806;2023-05-27T12:45:50;7.95;;;3.55;;
16579;SDS011;8402;51.466;6.806;2023-05-27T12:48:20;9.70;;;3.80;;
16579;SDS011;8402;51.466;6.806;2023-05-27T12:50:50;9.68;;;3.60;;
16579;SDS011;8402;51.466;6.806;2023-05-27T12:53:20;8.75;;;3.90;;
16579;SDS011;8402;51.466;6.806;2023-05-27T12:55:50;10.35;;;3.88;;
16579;SDS011;8402;51.466;6.806;2023-05-27T12:58:20;8.55;;;3.95;;
16579;SDS011;8402;51.466;6.806;2023-05-27T13:00:53;11.50;;;4.28;;
16579;SDS011;8402;51.466;6.806;2023-05-27T13:03:23;9.52;;;3.75;;
16579;SDS011;8402;51.466;6.806;2023-05-27T13:05:53;12.07;;;3.75;;
16579;SDS011;8402;51.466;6.806;2023-05-27T13:08:24;12.50;;;4.13;;
16579;SDS011;8402;51.466;6.806;2023-05-27T13:10:54;9.23;;;3.90;;
16579;SDS011;8402;51.466;6.806;2023-05-27T13:13:24;9.95;;;4.10;;
16579;SDS011;8402;51.466;6.806;2023-05-27T13:15:57;8.43;;;4.20;;
16579;SDS011;8402;51.466;6.806;2023-05-27T13:18:27;8.95;;;4.18;;
16579;SDS011;8402;51.466;6.806;2023-05-27T13:20:57;8.05;;;3.80;;
16579;SDS011;8402;51.466;6.806;2023-05-27T13:23:27;8.50;;;3.70;;
16579;SDS011;8402;51.466;6.806;2023-05-27T13:25:58;16.42;;;4.00;;
16579;SDS011;8402;51.466;6.806;2023-05-27T13:28:28;9.00;;;4.00;;
16579;SDS011;8402;51.466;6.806;2023-05-27T13:31:01;10.10;;;4.10;;
16579;SDS011;8402;51.466;6.806;2023-05-27T13:33:31;9.60;;;3.85;;
16579;SDS011;8402;51.466;6.806;2023-05-27T13:36:01;13.63;;;3.80;;
16579;SDS011;8402;51.466;6.806;2023-05-27T13:38:32;10.20;;;4.28;;
16579;SDS011;8402;51.466;6.806;2023-05-27T13:41:04;11.40;;;3.80;;
16579;SDS011;8402;51.466;6.806;2023-05-27T13:43:35;8.63;;;3.90;;
16579;SDS011;8402;51.466;6.806;2023-05-27T13:46:08;10.02;;;4.05;;
16579;SDS011;8402;51.466;6.806;2023-05-27T13:48:40;9.43;;;4.13;;
16579;SDS011;8402;51.466;6.806;2023-05-27T13:51:10;14.05;;;4.03;;
16579;SDS011;8402;51.466;6.806;2023-05-27T13:53:40;10.15;;;3.90;;
16579;SDS011;8402;51.466;6.806;2023-05-27T13:56:10;9.05;;;3.67;;
16579;SDS011;8402;51.466;6.806;2023-05-27T13:58:40;11.45;;;3.95;;
16579;SDS011;8402;51.466;6.806;2023-05-27T14:01:14;10.07;;;4.07;;
16579;SDS011;8402;51.466;6.806;2023-05-27T14:03:44;8.50;;;4.10;;
16579;SDS011;8402;51.466;6.806;2023-05-27T14:06:14;7.45;;;3.78;;
16579;SDS011;8402;51.466;6.806;2023-05-27T14:08:44;14.93;;;4.00;;
16579;SDS011;8402;51.466;6.806;2023-05-27T14:11:15;9.95;;;4.18;;
16579;SDS011;8402;51.466;6.806;2023-05-27T14:13:45;10.40;;;3.85;;
16579;SDS011;8402;51.466;6.806;2023-05-27T14:16:18;7.85;;;4.05;;
16579;SDS011;8402;51.466;6.806;2023-05-27T14:18:48;14.27;;;4.60;;
16579;SDS011;8402;51.466;6.806;2023-05-27T14:21:18;11.20;;;4.63;;
16579;SDS011;8402;51.466;6.806;2023-05-27T14:23:48;13.73;;;4.75;;
16579;SDS011;8402;51.466;6.806;2023-05-27T14:26:19;8.32;;;3.97;;
16579;SDS011;8402;51.466;6.806;2023-05-27T14:28:49;15.55;;;4.43;;
16579;SDS011;8402;51.466;6.806;2023-05-27T14:31:22;11.13;;;3.90;;
16579;SDS011;8402;51.466;6.806;2023-05-27T14:33:52;7.95;;;4.07;;
16579;SDS011;8402;51.466;6.806;2023-05-27T14:36:22;9.05;;;3.85;;
16579;SDS011;8402;51.466;6.806;2023-05-27T14:38:52;9.63;;;4.22;;
16579;SDS011;8402;51.466;6.806;2023-05-27T14:41:22;8.65;;;4.00;;
16579;SDS011;8402;51.466;6.806;2023-05-27T14:43:53;10.07;;;4.65;;
16579;SDS011;8402;51.466;6.806;2023-05-27T14:46:26;7.40;;;3.85;;
16579;SDS011;8402;51.466;6.806;2023-05-27T14:48:56;10.50;;;4.57;;
16579;SDS011;8402;51.466;6.806;2023-05-27T14:51:29;8.75;;;4.18;;
16579;SDS011;8402;51.466;6.806;2023-05-27T14:53:59;9.63;;;4.28;;
16579;SDS011;8402;51.466;6.806;2023-05-27T14:56:31;13.23;;;4.85;;
16579;SDS011;8402;51.466;6.806;2023-05-27T14:59:03;11.45;;;4.53;;
16579;SDS011;8402;51.466;6.806;2023-05-27T15:01:38;10.10;;;4.13;;
16579;SDS011;8402;51.466;6.806;2023-05-27T15:04:10;11.63;;;4.38;;
16579;SDS011;8402;51.466;6.806;2023-05-27T15:06:40;8.07;;;4.43;;
16579;SDS011;8402;51.466;6.806;2023-05-27T15:09:11;8.18;;;4.05;;
16579;SDS011;8402;51.466;6.806;2023-05-27T15:11:41;9.13;;;4.30;;
16579;SDS011;8402;51.466;6.806;2023-05-27T15:14:11;9.98;;;4.10;;
16579;SDS011;8402;51.466;6.806;2023-05-27T15:16:44;7.15;;;3.90;;
16579;SDS011;8402;51.466;6.806;2023-05-27T15:19:14;11.75;;;4.50;;